sensor_id;sensor_type;location;lat;lon;timestamp;P1;durP1;ratioP1;P2;durP2;ratioP2
39190;SDS011;24916;51.676;6.614;2023-07-08T00:01:34;3.83;;;2.28;;
39190;SDS011;24916;51.676;6.614;2023-07-08T00:03:59;6.60;;;2.20;;
39190;SDS011;24916;51.676;6.614;2023-07-08T00:06:25;5.60;;;2.10;;
39190;SDS011;24916;51.676;6.614;2023-07-08T00:08:51;6.22;;;2.05;;
39190;SDS011;24916;51.676;6.614;2023-07-08T00:11:16;6.30;;;2.17;;
39190;SDS011;24916;51.676;6.614;2023-07-08T00:13:42;7.85;;;2.35;;
39190;SDS011;24916;51.676;6.614;2023-07-08T00:16:11;5.57;;;2.40;;
39190;SDS011;24916;51.676;6.614;2023-07-08T00:18:36;9.60;;;2.33;;
39190;SDS011;24916;51.676;6.614;2023-07-08T00:21:02;4.35;;;2.20;;
39190;SDS011;24916;51.676;6.614;2023-07-08T00:23:28;6.72;;;2.50;;
39190;SDS011;24916;51.676;6.614;2023-07-08T00:25:53;4.03;;;2.73;;
39190;SDS011;24916;51.676;6.614;2023-07-08T00:28:19;2.63;;;1.77;;
39190;SDS011;24916;51.676;6.614;2023-07-08T00:30:45;7.68;;;2.65;;
39190;SDS011;24916;51.676;6.614;2023-07-08T00:33:10;11.45;;;2.83;;
39190;SDS011;24916;51.676;6.614;2023-07-08T00:35:39;8.07;;;2.03;;
39190;SDS011;24916;51.676;6.614;2023-07-08T00:40:46;12.50;;;2.30;;
39190;SDS011;24916;51.676;6.614;2023-07-08T00:43:13;4.13;;;2.20;;
39190;SDS011;24916;51.676;6.614;2023-07-08T00:45:40;5.15;;;2.28;;
39190;SDS011;24916;51.676;6.614;2023-07-08T00:50:41;4.00;;;2.28;;
39190;SDS011;24916;51.676;6.614;2023-07-08T00:55:49;4.82;;;2.17;;
39190;SDS011;24916;51.676;6.614;2023-07-08T00:58:15;7.30;;;2.20;;
39190;SDS011;24916;51.676;6.614;2023-07-08T01:00:41;5.90;;;2.60;;
39190;SDS011;24916;51.676;6.614;2023-07-08T01:03:07;7.80;;;2.35;;
39190;SDS011;24916;51.676;6.614;2023-07-08T01:05:32;8.57;;;2.70;;
39190;SDS011;24916;51.676;6.614;2023-07-08T01:08:00;6.60;;;2.17;;
39190;SDS011;24916;51.676;6.614;2023-07-08T01:10:28;5.13;;;2.17;;
39190;SDS011;24916;51.676;6.614;2023-07-08T01:12:57;5.43;;;2.42;;
39190;SDS011;24916;51.676;6.614;2023-07-08T01:15:25;3.03;;;2.13;;
39190;SDS011;24916;51.676;6.614;2023-07-08T01:17:52;3.38;;;2.30;;
39190;SDS011;24916;51.676;6.614;2023-07-08T01:20:18;4.43;;;2.22;;
39190;SDS011;24916;51.676;6.614;2023-07-08T01:22:44;6.93;;;2.55;;
39190;SDS011;24916;51.676;6.614;2023-07-08T01:25:09;4.28;;;2.67;;
39190;SDS011;24916;51.676;6.614;2023-07-08T01:27:37;6.03;;;2.35;;
39190;SDS011;24916;51.676;6.614;2023-07-08T01:30:03;5.10;;;2.15;;
39190;SDS011;24916;51.676;6.614;2023-07-08T01:32:29;3.92;;;2.47;;
39190;SDS011;24916;51.676;6.614;2023-07-08T01:34:57;4.28;;;2.30;;
39190;SDS011;24916;51.676;6.614;2023-07-08T01:37:29;6.18;;;2.25;;
39190;SDS011;24916;51.676;6.614;2023-07-08T01:39:56;4.60;;;2.47;;
39190;SDS011;24916;51.676;6.614;2023-07-08T01:42:21;7.97;;;2.33;;
39190;SDS011;24916;51.676;6.614;2023-07-08T01:44:46;3.40;;;2.17;;
39190;SDS011;24916;51.676;6.614;2023-07-08T01:47:16;4.22;;;2.13;;
39190;SDS011;24916;51.676;6.614;2023-07-08T01:49:43;5.40;;;2.40;;
39190;SDS011;24916;51.676;6.614;2023-07-08T01:52:10;3.35;;;1.90;;
39190;SDS011;24916;51.676;6.614;2023-07-08T01:54:36;5.85;;;2.35;;
39190;SDS011;24916;51.676;6.614;2023-07-08T01:57:01;4.10;;;2.08;;
39190;SDS011;24916;51.676;6.614;2023-07-08T01:59:27;6.57;;;2.22;;
39190;SDS011;24916;51.676;6.614;2023-07-08T02:01:52;7.78;;;2.20;;
39190;SDS011;24916;51.676;6.614;2023-07-08T02:04:21;4.10;;;2.20;;
39190;SDS011;24916;51.676;6.614;2023-07-08T02:06:58;3.83;;;2.40;;
39190;SDS011;24916;51.676;6.614;2023-07-08T02:09:23;4.43;;;2.33;;
39190;SDS011;24916;51.676;6.614;2023-07-08T02:11:50;4.20;;;2.38;;
39190;SDS011;24916;51.676;6.614;2023-07-08T02:14:15;4.88;;;2.30;;
39190;SDS011;24916;51.676;6.614;2023-07-08T02:16:40;4.43;;;2.00;;
39190;SDS011;24916;51.676;6.614;2023-07-08T02:19:05;4.03;;;2.13;;
39190;SDS011;24916;51.676;6.614;2023-07-08T02:21:30;5.40;;;2.88;;
39190;SDS011;24916;51.676;6.614;2023-07-08T02:23:56;5.60;;;2.27;;
39190;SDS011;24916;51.676;6.614;2023-07-08T02:26:21;3.72;;;2.25;;
39190;SDS011;24916;51.676;6.614;2023-07-08T02:28:47;3.05;;;2.28;;
39190;SDS011;24916;51.676;6.614;2023-07-08T02:31:12;5.75;;;2.20;;
39190;SDS011;24916;51.676;6.614;2023-07-08T02:33:37;4.30;;;2.22;;
39190;SDS011;24916;51.676;6.614;2023-07-08T02:36:02;3.78;;;2.30;;
39190;SDS011;24916;51.676;6.614;2023-07-08T02:38:28;7.72;;;2.65;;
39190;SDS011;24916;51.676;6.614;2023-07-08T02:40:53;5.40;;;2.20;;
39190;SDS011;24916;51.676;6.614;2023-07-08T02:43:18;6.43;;;2.50;;
39190;SDS011;24916;51.676;6.614;2023-07-08T02:45:43;3.13;;;2.40;;
39190;SDS011;24916;51.676;6.614;2023-07-08T02:48:08;4.03;;;2.50;;
39190;SDS011;24916;51.676;6.614;2023-07-08T02:50:34;6.43;;;2.33;;
39190;SDS011;24916;51.676;6.614;2023-07-08T02:52:59;5.07;;;2.45;;
39190;SDS011;24916;51.676;6.614;2023-07-08T02:55:24;6.70;;;2.13;;
39190;SDS011;24916;51.676;6.614;2023-07-08T02:57:49;2.57;;;2.00;;
39190;SDS011;24916;51.676;6.614;2023-07-08T03:00:15;4.40;;;2.33;;
39190;SDS011;24916;51.676;6.614;2023-07-08T03:02:40;3.45;;;2.40;;
39190;SDS011;24916;51.676;6.614;2023-07-08T03:05:05;6.53;;;2.47;;
39190;SDS011;24916;51.676;6.614;2023-07-08T03:07:31;3.53;;;2.33;;
39190;SDS011;24916;51.676;6.614;2023-07-08T03:09:56;3.63;;;2.33;;
39190;SDS011;24916;51.676;6.614;2023-07-08T03:12:22;4.93;;;2.30;;
39190;SDS011;24916;51.676;6.614;2023-07-08T03:14:47;3.60;;;2.50;;
39190;SDS011;24916;51.676;6.614;2023-07-08T03:17:12;4.13;;;2.17;;
39190;SDS011;24916;51.676;6.614;2023-07-08T03:19:37;7.70;;;2.72;;
39190;SDS011;24916;51.676;6.614;2023-07-08T03:22:03;3.83;;;2.27;;
39190;SDS011;24916;51.676;6.614;2023-07-08T03:24:30;4.32;;;2.50;;
39190;SDS011;24916;51.676;6.614;2023-07-08T03:26:55;4.40;;;2.15;;
39190;SDS011;24916;51.676;6.614;2023-07-08T03:29:20;10.13;;;2.73;;
39190;SDS011;24916;51.676;6.614;2023-07-08T03:31:46;4.28;;;2.10;;
39190;SDS011;24916;51.676;6.614;2023-07-08T03:34:15;3.63;;;2.17;;
39190;SDS011;24916;51.676;6.614;2023-07-08T03:36:44;6.00;;;2.50;;
39190;SDS011;24916;51.676;6.614;2023-07-08T03:39:14;5.10;;;2.80;;
39190;SDS011;24916;51.676;6.614;2023-07-08T03:41:39;6.25;;;2.75;;
39190;SDS011;24916;51.676;6.614;2023-07-08T03:44:04;6.80;;;2.67;;
39190;SDS011;24916;51.676;6.614;2023-07-08T03:46:29;9.55;;;2.90;;
39190;SDS011;24916;51.676;6.614;2023-07-08T03:48:55;5.87;;;2.67;;
39190;SDS011;24916;51.676;6.614;2023-07-08T03:51:24;4.47;;;2.40;;
39190;SDS011;24916;51.676;6.614;2023-07-08T03:53:50;3.90;;;2.65;;
39190;SDS011;24916;51.676;6.614;2023-07-08T03:56:16;3.65;;;2.20;;
39190;SDS011;24916;51.676;6.614;2023-07-08T03:58:41;3.65;;;2.83;;
39190;SDS011;24916;51.676;6.614;2023-07-08T04:01:13;8.83;;;3.10;;
39190;SDS011;24916;51.676;6.614;2023-07-08T04:03:39;6.63;;;2.78;;
39190;SDS011;24916;51.676;6.614;2023-07-08T04:06:04;3.70;;;2.80;;
39190;SDS011;24916;51.676;6.614;2023-07-08T04:08:30;5.07;;;2.60;;
39190;SDS011;24916;51.676;6.614;2023-07-08T04:10:55;5.50;;;2.40;;
39190;SDS011;24916;51.676;6.614;2023-07-08T04:13:20;3.90;;;2.50;;
39190;SDS011;24916;51.676;6.614;2023-07-08T04:15:45;4.70;;;2.80;;
39190;SDS011;24916;51.676;6.614;2023-07-08T04:18:14;6.13;;;2.50;;
39190;SDS011;24916;51.676;6.614;2023-07-08T04:20:39;5.65;;;3.28;;
39190;SDS011;24916;51.676;6.614;2023-07-08T04:23:04;6.40;;;2.80;;
39190;SDS011;24916;51.676;6.614;2023-07-08T04:25:30;3.90;;;2.60;;
39190;SDS011;24916;51.676;6.614;2023-07-08T04:27:55;3.72;;;2.70;;
39190;SDS011;24916;51.676;6.614;2023-07-08T04:30:22;3.95;;;2.67;;
39190;SDS011;24916;51.676;6.614;2023-07-08T04:32:49;7.68;;;2.65;;
39190;SDS011;24916;51.676;6.614;2023-07-08T04:35:14;3.88;;;2.50;;
39190;SDS011;24916;51.676;6.614;2023-07-08T04:37:40;5.78;;;2.75;;
39190;SDS011;24916;51.676;6.614;2023-07-08T04:40:07;10.18;;;2.70;;
39190;SDS011;24916;51.676;6.614;2023-07-08T04:42:33;7.32;;;2.65;;
39190;SDS011;24916;51.676;6.614;2023-07-08T04:44:58;4.93;;;2.50;;
39190;SDS011;24916;51.676;6.614;2023-07-08T04:47:24;7.20;;;2.67;;
39190;SDS011;24916;51.676;6.614;2023-07-08T04:49:49;4.23;;;2.33;;
39190;SDS011;24916;51.676;6.614;2023-07-08T04:52:14;5.80;;;2.45;;
39190;SDS011;24916;51.676;6.614;2023-07-08T04:54:39;5.47;;;2.57;;
39190;SDS011;24916;51.676;6.614;2023-07-08T04:57:04;6.32;;;2.70;;
39190;SDS011;24916;51.676;6.614;2023-07-08T04:59:30;6.40;;;2.35;;
39190;SDS011;24916;51.676;6.614;2023-07-08T05:01:59;5.68;;;2.80;;
39190;SDS011;24916;51.676;6.614;2023-07-08T05:04:24;3.97;;;2.67;;
39190;SDS011;24916;51.676;6.614;2023-07-08T05:06:49;4.65;;;2.63;;
39190;SDS011;24916;51.676;6.614;2023-07-08T05:09:15;7.15;;;2.80;;
39190;SDS011;24916;51.676;6.614;2023-07-08T05:11:40;7.85;;;3.00;;
39190;SDS011;24916;51.676;6.614;2023-07-08T05:14:05;5.63;;;2.42;;
39190;SDS011;24916;51.676;6.614;2023-07-08T05:16:31;4.57;;;2.65;;
39190;SDS011;24916;51.676;6.614;2023-07-08T05:18:57;6.32;;;2.85;;
39190;SDS011;24916;51.676;6.614;2023-07-08T05:21:22;4.88;;;2.53;;
39190;SDS011;24916;51.676;6.614;2023-07-08T05:23:48;4.53;;;2.75;;
39190;SDS011;24916;51.676;6.614;2023-07-08T05:26:14;5.10;;;2.50;;
39190;SDS011;24916;51.676;6.614;2023-07-08T05:28:39;4.82;;;2.70;;
39190;SDS011;24916;51.676;6.614;2023-07-08T05:31:05;4.07;;;2.33;;
39190;SDS011;24916;51.676;6.614;2023-07-08T05:33:30;4.10;;;2.57;;
39190;SDS011;24916;51.676;6.614;2023-07-08T05:35:56;4.78;;;2.42;;
39190;SDS011;24916;51.676;6.614;2023-07-08T05:38:23;4.63;;;2.63;;
39190;SDS011;24916;51.676;6.614;2023-07-08T05:40:49;4.60;;;2.50;;
39190;SDS011;24916;51.676;6.614;2023-07-08T05:43:14;6.75;;;2.88;;
39190;SDS011;24916;51.676;6.614;2023-07-08T05:45:39;3.17;;;2.17;;
39190;SDS011;24916;51.676;6.614;2023-07-08T05:48:05;6.45;;;2.53;;
39190;SDS011;24916;51.676;6.614;2023-07-08T05:50:30;5.22;;;2.50;;
39190;SDS011;24916;51.676;6.614;2023-07-08T05:52:55;3.87;;;2.30;;
39190;SDS011;24916;51.676;6.614;2023-07-08T05:55:20;3.75;;;2.22;;
39190;SDS011;24916;51.676;6.614;2023-07-08T05:57:46;5.23;;;2.80;;
39190;SDS011;24916;51.676;6.614;2023-07-08T06:00:11;8.03;;;2.70;;
39190;SDS011;24916;51.676;6.614;2023-07-08T06:02:36;4.00;;;2.53;;
39190;SDS011;24916;51.676;6.614;2023-07-08T06:05:02;5.10;;;2.50;;
39190;SDS011;24916;51.676;6.614;2023-07-08T06:07:27;6.70;;;2.20;;
39190;SDS011;24916;51.676;6.614;2023-07-08T06:09:52;5.10;;;2.73;;
39190;SDS011;24916;51.676;6.614;2023-07-08T06:12:20;14.60;;;2.70;;
39190;SDS011;24916;51.676;6.614;2023-07-08T06:14:46;4.63;;;2.80;;
39190;SDS011;24916;51.676;6.614;2023-07-08T06:17:11;6.10;;;2.65;;
39190;SDS011;24916;51.676;6.614;2023-07-08T06:19:36;8.23;;;2.80;;
39190;SDS011;24916;51.676;6.614;2023-07-08T06:22:01;4.85;;;2.40;;
39190;SDS011;24916;51.676;6.614;2023-07-08T06:24:27;5.45;;;2.60;;
39190;SDS011;24916;51.676;6.614;2023-07-08T06:26:52;7.40;;;2.10;;
39190;SDS011;24916;51.676;6.614;2023-07-08T06:29:17;4.43;;;2.50;;
39190;SDS011;24916;51.676;6.614;2023-07-08T06:31:44;2.75;;;2.15;;
39190;SDS011;24916;51.676;6.614;2023-07-08T06:34:09;13.68;;;2.90;;
39190;SDS011;24916;51.676;6.614;2023-07-08T06:36:34;4.57;;;2.65;;
39190;SDS011;24916;51.676;6.614;2023-07-08T06:39:00;4.63;;;2.65;;
39190;SDS011;24916;51.676;6.614;2023-07-08T06:41:25;3.22;;;2.33;;
39190;SDS011;24916;51.676;6.614;2023-07-08T06:43:50;3.17;;;2.50;;
39190;SDS011;24916;51.676;6.614;2023-07-08T06:46:16;9.95;;;3.58;;
39190;SDS011;24916;51.676;6.614;2023-07-08T06:48:41;3.72;;;2.28;;
39190;SDS011;24916;51.676;6.614;2023-07-08T06:51:07;6.35;;;2.67;;
39190;SDS011;24916;51.676;6.614;2023-07-08T06:53:32;4.17;;;2.33;;
39190;SDS011;24916;51.676;6.614;2023-07-08T06:55:57;5.80;;;3.10;;
39190;SDS011;24916;51.676;6.614;2023-07-08T06:58:23;5.18;;;2.17;;
39190;SDS011;24916;51.676;6.614;2023-07-08T07:00:48;7.03;;;2.67;;
39190;SDS011;24916;51.676;6.614;2023-07-08T07:03:13;4.70;;;2.80;;
39190;SDS011;24916;51.676;6.614;2023-07-08T07:05:38;8.83;;;3.13;;
39190;SDS011;24916;51.676;6.614;2023-07-08T07:08:04;4.03;;;2.72;;
39190;SDS011;24916;51.676;6.614;2023-07-08T07:10:29;3.42;;;2.70;;
39190;SDS011;24916;51.676;6.614;2023-07-08T07:12:54;5.03;;;2.63;;
39190;SDS011;24916;51.676;6.614;2023-07-08T07:15:19;4.90;;;2.75;;
39190;SDS011;24916;51.676;6.614;2023-07-08T07:17:45;5.97;;;2.72;;
39190;SDS011;24916;51.676;6.614;2023-07-08T07:20:10;8.73;;;2.58;;
39190;SDS011;24916;51.676;6.614;2023-07-08T07:22:36;4.80;;;2.35;;
39190;SDS011;24916;51.676;6.614;2023-07-08T07:25:01;5.55;;;2.47;;
39190;SDS011;24916;51.676;6.614;2023-07-08T07:27:26;9.13;;;3.22;;
39190;SDS011;24916;51.676;6.614;2023-07-08T07:29:51;4.65;;;2.80;;
39190;SDS011;24916;51.676;6.614;2023-07-08T07:32:17;5.75;;;3.17;;
39190;SDS011;24916;51.676;6.614;2023-07-08T07:34:45;6.05;;;2.67;;
39190;SDS011;24916;51.676;6.614;2023-07-08T07:37:14;4.82;;;2.78;;
39190;SDS011;24916;51.676;6.614;2023-07-08T07:39:40;9.00;;;2.75;;
39190;SDS011;24916;51.676;6.614;2023-07-08T07:42:05;10.90;;;3.35;;
39190;SDS011;24916;51.676;6.614;2023-07-08T07:44:31;6.45;;;2.90;;
39190;SDS011;24916;51.676;6.614;2023-07-08T07:46:56;4.73;;;2.60;;
39190;SDS011;24916;51.676;6.614;2023-07-08T07:49:21;7.97;;;3.07;;
39190;SDS011;24916;51.676;6.614;2023-07-08T07:51:47;3.20;;;2.70;;
39190;SDS011;24916;51.676;6.614;2023-07-08T07:54:12;5.53;;;2.95;;
39190;SDS011;24916;51.676;6.614;2023-07-08T07:56:38;6.60;;;3.10;;
39190;SDS011;24916;51.676;6.614;2023-07-08T07:59:03;8.23;;;2.63;;
39190;SDS011;24916;51.676;6.614;2023-07-08T08:01:28;5.20;;;2.93;;
39190;SDS011;24916;51.676;6.614;2023-07-08T08:03:53;10.38;;;3.15;;
39190;SDS011;24916;51.676;6.614;2023-07-08T08:06:19;4.47;;;3.00;;
39190;SDS011;24916;51.676;6.614;2023-07-08T08:08:44;8.83;;;3.13;;
39190;SDS011;24916;51.676;6.614;2023-07-08T08:11:10;12.20;;;3.30;;
39190;SDS011;24916;51.676;6.614;2023-07-08T08:13:35;5.43;;;2.85;;
39190;SDS011;24916;51.676;6.614;2023-07-08T08:16:02;8.23;;;3.47;;
39190;SDS011;24916;51.676;6.614;2023-07-08T08:18:29;7.88;;;4.00;;
39190;SDS011;24916;51.676;6.614;2023-07-08T08:20:55;5.32;;;3.20;;
39190;SDS011;24916;51.676;6.614;2023-07-08T08:23:20;6.53;;;3.75;;
39190;SDS011;24916;51.676;6.614;2023-07-08T08:25:45;7.33;;;3.40;;
39190;SDS011;24916;51.676;6.614;2023-07-08T08:28:11;4.37;;;3.07;;
39190;SDS011;24916;51.676;6.614;2023-07-08T08:30:36;5.63;;;3.72;;
39190;SDS011;24916;51.676;6.614;2023-07-08T08:33:01;7.40;;;3.60;;
39190;SDS011;24916;51.676;6.614;2023-07-08T08:35:27;3.80;;;2.90;;
39190;SDS011;24916;51.676;6.614;2023-07-08T08:37:53;7.28;;;4.18;;
39190;SDS011;24916;51.676;6.614;2023-07-08T08:40:21;5.15;;;3.42;;
39190;SDS011;24916;51.676;6.614;2023-07-08T08:42:56;5.93;;;4.55;;
39190;SDS011;24916;51.676;6.614;2023-07-08T08:45:22;8.32;;;3.72;;
39190;SDS011;24916;51.676;6.614;2023-07-08T08:47:51;6.28;;;3.85;;
39190;SDS011;24916;51.676;6.614;2023-07-08T08:50:36;5.03;;;3.38;;
39190;SDS011;24916;51.676;6.614;2023-07-08T08:53:05;6.90;;;3.97;;
39190;SDS011;24916;51.676;6.614;2023-07-08T08:55:30;7.28;;;4.93;;
39190;SDS011;24916;51.676;6.614;2023-07-08T09:00:27;7.87;;;5.00;;
39190;SDS011;24916;51.676;6.614;2023-07-08T09:02:56;10.10;;;7.80;;
39190;SDS011;24916;51.676;6.614;2023-07-08T09:05:23;8.40;;;6.25;;
39190;SDS011;24916;51.676;6.614;2023-07-08T09:12:51;11.43;;;5.17;;
39190;SDS011;24916;51.676;6.614;2023-07-08T09:15:18;5.53;;;4.70;;
39190;SDS011;24916;51.676;6.614;2023-07-08T09:17:44;5.35;;;4.45;;
39190;SDS011;24916;51.676;6.614;2023-07-08T09:20:17;7.55;;;6.68;;
39190;SDS011;24916;51.676;6.614;2023-07-08T09:22:51;11.10;;;5.88;;
39190;SDS011;24916;51.676;6.614;2023-07-08T09:27:45;9.00;;;6.95;;
39190;SDS011;24916;51.676;6.614;2023-07-08T09:30:20;6.93;;;5.40;;
39190;SDS011;24916;51.676;6.614;2023-07-08T09:32:46;7.78;;;5.45;;
39190;SDS011;24916;51.676;6.614;2023-07-08T09:35:25;7.18;;;5.35;;
39190;SDS011;24916;51.676;6.614;2023-07-08T09:37:51;9.48;;;4.65;;
39190;SDS011;24916;51.676;6.614;2023-07-08T09:42:42;17.90;;;11.52;;
39190;SDS011;24916;51.676;6.614;2023-07-08T09:45:13;6.30;;;4.75;;
39190;SDS011;24916;51.676;6.614;2023-07-08T09:47:39;8.70;;;4.57;;
39190;SDS011;24916;51.676;6.614;2023-07-08T09:52:43;8.23;;;4.80;;
39190;SDS011;24916;51.676;6.614;2023-07-08T09:55:10;7.75;;;4.85;;
39190;SDS011;24916;51.676;6.614;2023-07-08T09:57:36;11.82;;;4.72;;
39190;SDS011;24916;51.676;6.614;2023-07-08T10:00:11;7.15;;;4.55;;
39190;SDS011;24916;51.676;6.614;2023-07-08T10:07:48;7.45;;;5.10;;
39190;SDS011;24916;51.676;6.614;2023-07-08T10:10:17;12.02;;;4.60;;
39190;SDS011;24916;51.676;6.614;2023-07-08T10:12:47;9.77;;;5.07;;
39190;SDS011;24916;51.676;6.614;2023-07-08T10:15:51;6.63;;;4.82;;
39190;SDS011;24916;51.676;6.614;2023-07-08T10:18:14;9.32;;;5.07;;
39190;SDS011;24916;51.676;6.614;2023-07-08T10:23:17;9.10;;;5.30;;
39190;SDS011;24916;51.676;6.614;2023-07-08T10:25:49;13.77;;;5.50;;
39190;SDS011;24916;51.676;6.614;2023-07-08T10:30:53;9.68;;;5.07;;
39190;SDS011;24916;51.676;6.614;2023-07-08T10:38:37;6.88;;;5.25;;
39190;SDS011;24916;51.676;6.614;2023-07-08T10:41:07;8.45;;;6.18;;
39190;SDS011;24916;51.676;6.614;2023-07-08T10:46:24;11.70;;;4.50;;
39190;SDS011;24916;51.676;6.614;2023-07-08T10:49:05;9.48;;;4.68;;
39190;SDS011;24916;51.676;6.614;2023-07-08T11:01:42;9.13;;;4.30;;
39190;SDS011;24916;51.676;6.614;2023-07-08T11:06:55;8.02;;;4.18;;
39190;SDS011;24916;51.676;6.614;2023-07-08T11:09:24;5.57;;;4.05;;
39190;SDS011;24916;51.676;6.614;2023-07-08T11:11:53;6.53;;;3.85;;
39190;SDS011;24916;51.676;6.614;2023-07-08T11:14:21;6.85;;;4.07;;
39190;SDS011;24916;51.676;6.614;2023-07-08T11:16:50;7.43;;;3.80;;
39190;SDS011;24916;51.676;6.614;2023-07-08T11:19:21;11.32;;;3.85;;
39190;SDS011;24916;51.676;6.614;2023-07-08T11:21:52;7.13;;;3.60;;
39190;SDS011;24916;51.676;6.614;2023-07-08T11:26:50;8.48;;;4.22;;
39190;SDS011;24916;51.676;6.614;2023-07-08T11:29:19;4.57;;;3.47;;
39190;SDS011;24916;51.676;6.614;2023-07-08T11:31:45;7.07;;;3.88;;
39190;SDS011;24916;51.676;6.614;2023-07-08T11:34:11;11.38;;;4.60;;
39190;SDS011;24916;51.676;6.614;2023-07-08T11:36:36;11.20;;;3.70;;
39190;SDS011;24916;51.676;6.614;2023-07-08T11:39:31;6.03;;;3.65;;
39190;SDS011;24916;51.676;6.614;2023-07-08T11:42:04;6.70;;;3.72;;
39190;SDS011;24916;51.676;6.614;2023-07-08T11:44:30;5.82;;;3.45;;
39190;SDS011;24916;51.676;6.614;2023-07-08T11:46:58;6.43;;;3.22;;
39190;SDS011;24916;51.676;6.614;2023-07-08T11:49:23;4.20;;;3.13;;
39190;SDS011;24916;51.676;6.614;2023-07-08T11:51:48;8.10;;;3.60;;
39190;SDS011;24916;51.676;6.614;2023-07-08T11:56:46;6.73;;;3.40;;
39190;SDS011;24916;51.676;6.614;2023-07-08T12:01:39;4.22;;;3.17;;
39190;SDS011;24916;51.676;6.614;2023-07-08T12:08:59;12.07;;;3.67;;
39190;SDS011;24916;51.676;6.614;2023-07-08T12:11:30;8.73;;;3.38;;
39190;SDS011;24916;51.676;6.614;2023-07-08T12:13:57;6.30;;;3.90;;
39190;SDS011;24916;51.676;6.614;2023-07-08T12:16:23;4.45;;;3.35;;
39190;SDS011;24916;51.676;6.614;2023-07-08T12:18:48;14.02;;;4.68;;
39190;SDS011;24916;51.676;6.614;2023-07-08T12:21:14;5.55;;;3.38;;
39190;SDS011;24916;51.676;6.614;2023-07-08T12:23:44;5.32;;;3.42;;
39190;SDS011;24916;51.676;6.614;2023-07-08T12:26:09;5.43;;;3.63;;
39190;SDS011;24916;51.676;6.614;2023-07-08T12:28:36;4.38;;;3.10;;
39190;SDS011;24916;51.676;6.614;2023-07-08T12:31:01;10.57;;;6.18;;
39190;SDS011;24916;51.676;6.614;2023-07-08T12:33:33;4.50;;;3.67;;
39190;SDS011;24916;51.676;6.614;2023-07-08T12:36:00;9.53;;;5.47;;
39190;SDS011;24916;51.676;6.614;2023-07-08T12:38:30;6.13;;;4.20;;
39190;SDS011;24916;51.676;6.614;2023-07-08T12:40:57;4.82;;;3.92;;
39190;SDS011;24916;51.676;6.614;2023-07-08T12:43:23;6.40;;;3.55;;
39190;SDS011;24916;51.676;6.614;2023-07-08T12:45:48;6.03;;;4.30;;
39190;SDS011;24916;51.676;6.614;2023-07-08T12:48:13;6.33;;;3.20;;
39190;SDS011;24916;51.676;6.614;2023-07-08T12:50:38;7.43;;;3.17;;
39190;SDS011;24916;51.676;6.614;2023-07-08T12:53:04;11.47;;;3.77;;
39190;SDS011;24916;51.676;6.614;2023-07-08T12:55:34;6.82;;;4.07;;
39190;SDS011;24916;51.676;6.614;2023-07-08T12:57:59;5.47;;;4.25;;
39190;SDS011;24916;51.676;6.614;2023-07-08T13:00:30;4.05;;;3.53;;
39190;SDS011;24916;51.676;6.614;2023-07-08T13:03:00;4.97;;;3.03;;
39190;SDS011;24916;51.676;6.614;2023-07-08T13:05:26;6.22;;;3.58;;
39190;SDS011;24916;51.676;6.614;2023-07-08T13:07:51;6.03;;;2.85;;
39190;SDS011;24916;51.676;6.614;2023-07-08T13:10:19;5.53;;;4.32;;
39190;SDS011;24916;51.676;6.614;2023-07-08T13:12:45;3.78;;;3.33;;
39190;SDS011;24916;51.676;6.614;2023-07-08T13:15:13;4.82;;;3.15;;
39190;SDS011;24916;51.676;6.614;2023-07-08T13:17:40;5.03;;;3.13;;
39190;SDS011;24916;51.676;6.614;2023-07-08T13:20:07;5.03;;;3.35;;
39190;SDS011;24916;51.676;6.614;2023-07-08T13:22:33;9.48;;;4.13;;
39190;SDS011;24916;51.676;6.614;2023-07-08T13:25:00;6.27;;;3.17;;
39190;SDS011;24916;51.676;6.614;2023-07-08T13:27:25;13.30;;;3.25;;
39190;SDS011;24916;51.676;6.614;2023-07-08T13:29:51;8.57;;;4.45;;
39190;SDS011;24916;51.676;6.614;2023-07-08T13:32:17;5.32;;;3.45;;
39190;SDS011;24916;51.676;6.614;2023-07-08T13:34:42;8.43;;;3.67;;
39190;SDS011;24916;51.676;6.614;2023-07-08T13:37:11;3.77;;;2.87;;
39190;SDS011;24916;51.676;6.614;2023-07-08T13:39:38;7.90;;;3.53;;
39190;SDS011;24916;51.676;6.614;2023-07-08T13:42:04;5.43;;;3.90;;
39190;SDS011;24916;51.676;6.614;2023-07-08T13:44:31;3.78;;;3.22;;
39190;SDS011;24916;51.676;6.614;2023-07-08T13:46:57;4.60;;;3.20;;
39190;SDS011;24916;51.676;6.614;2023-07-08T13:49:30;6.85;;;3.80;;
39190;SDS011;24916;51.676;6.614;2023-07-08T13:52:06;4.85;;;3.08;;
39190;SDS011;24916;51.676;6.614;2023-07-08T13:54:33;6.15;;;3.38;;
39190;SDS011;24916;51.676;6.614;2023-07-08T13:57:00;5.13;;;3.15;;
39190;SDS011;24916;51.676;6.614;2023-07-08T13:59:25;6.25;;;3.30;;
39190;SDS011;24916;51.676;6.614;2023-07-08T14:01:55;6.83;;;3.70;;
39190;SDS011;24916;51.676;6.614;2023-07-08T14:04:22;4.75;;;3.55;;
39190;SDS011;24916;51.676;6.614;2023-07-08T14:06:49;4.90;;;3.17;;
39190;SDS011;24916;51.676;6.614;2023-07-08T14:09:16;5.68;;;3.55;;
39190;SDS011;24916;51.676;6.614;2023-07-08T14:11:41;4.78;;;3.80;;
39190;SDS011;24916;51.676;6.614;2023-07-08T14:14:07;9.40;;;3.60;;
39190;SDS011;24916;51.676;6.614;2023-07-08T14:16:33;5.38;;;3.05;;
39190;SDS011;24916;51.676;6.614;2023-07-08T14:18:59;5.78;;;2.97;;
39190;SDS011;24916;51.676;6.614;2023-07-08T14:21:26;7.13;;;3.20;;
39190;SDS011;24916;51.676;6.614;2023-07-08T14:23:51;6.15;;;4.00;;
39190;SDS011;24916;51.676;6.614;2023-07-08T14:26:17;8.50;;;3.10;;
39190;SDS011;24916;51.676;6.614;2023-07-08T14:28:42;7.68;;;3.90;;
39190;SDS011;24916;51.676;6.614;2023-07-08T14:31:09;5.57;;;3.28;;
39190;SDS011;24916;51.676;6.614;2023-07-08T14:33:34;7.97;;;3.50;;
39190;SDS011;24916;51.676;6.614;2023-07-08T14:35:59;6.77;;;3.37;;
39190;SDS011;24916;51.676;6.614;2023-07-08T14:38:24;4.53;;;3.73;;
39190;SDS011;24916;51.676;6.614;2023-07-08T14:40:50;6.37;;;3.87;;
39190;SDS011;24916;51.676;6.614;2023-07-08T14:43:16;8.32;;;5.05;;
39190;SDS011;24916;51.676;6.614;2023-07-08T14:45:49;6.32;;;4.07;;
39190;SDS011;24916;51.676;6.614;2023-07-08T14:48:15;7.55;;;3.58;;
39190;SDS011;24916;51.676;6.614;2023-07-08T14:50:41;4.90;;;3.58;;
39190;SDS011;24916;51.676;6.614;2023-07-08T14:53:06;6.90;;;4.03;;
39190;SDS011;24916;51.676;6.614;2023-07-08T14:55:32;5.93;;;3.63;;
39190;SDS011;24916;51.676;6.614;2023-07-08T14:57:57;7.28;;;3.63;;
39190;SDS011;24916;51.676;6.614;2023-07-08T15:00:23;4.40;;;3.10;;
39190;SDS011;24916;51.676;6.614;2023-07-08T15:02:49;5.07;;;3.65;;
39190;SDS011;24916;51.676;6.614;2023-07-08T15:07:40;4.95;;;3.35;;
39190;SDS011;24916;51.676;6.614;2023-07-08T15:10:06;6.03;;;3.23;;
39190;SDS011;24916;51.676;6.614;2023-07-08T15:12:32;5.95;;;3.75;;
39190;SDS011;24916;51.676;6.614;2023-07-08T15:14:57;5.47;;;3.63;;
39190;SDS011;24916;51.676;6.614;2023-07-08T15:17:22;7.50;;;3.57;;
39190;SDS011;24916;51.676;6.614;2023-07-08T15:19:47;6.40;;;3.50;;
39190;SDS011;24916;51.676;6.614;2023-07-08T15:22:13;6.30;;;3.22;;
39190;SDS011;24916;51.676;6.614;2023-07-08T15:24:38;6.10;;;3.70;;
39190;SDS011;24916;51.676;6.614;2023-07-08T15:27:03;7.67;;;3.60;;
39190;SDS011;24916;51.676;6.614;2023-07-08T15:29:29;6.35;;;3.63;;
39190;SDS011;24916;51.676;6.614;2023-07-08T15:31:55;7.78;;;3.40;;
39190;SDS011;24916;51.676;6.614;2023-07-08T15:34:21;9.03;;;3.80;;
39190;SDS011;24916;51.676;6.614;2023-07-08T15:36:46;5.28;;;3.53;;
39190;SDS011;24916;51.676;6.614;2023-07-08T15:39:12;6.03;;;4.28;;
39190;SDS011;24916;51.676;6.614;2023-07-08T15:41:40;6.75;;;3.55;;
39190;SDS011;24916;51.676;6.614;2023-07-08T15:44:09;7.00;;;3.65;;
39190;SDS011;24916;51.676;6.614;2023-07-08T15:46:37;4.78;;;3.22;;
39190;SDS011;24916;51.676;6.614;2023-07-08T15:49:09;8.68;;;3.20;;
39190;SDS011;24916;51.676;6.614;2023-07-08T15:51:37;6.75;;;3.50;;